Perrinton, Michigan
Current Conditions -  °F | °C
As of 8:14 AM on Thursday 18 Dec 2014 (Local Time) from KAMN Reporting Station
Overcast Overcast  
Wind Chill: 30°   Ceiling: 1600
Heat Index: 30°   Visibility: 10mi
Dew Point: 27°   Wind: 0mph
Humidity: 88%   Direction: NA
Pressure: 30.19"   Gusts: NA
Location:  43.18°N, 84.68°W
Report Text: KAMN 181314Z AUTO 00000KT 10SM OVC016 M01/M03 A3019 RMK AO2 T10101027
Loading
Personal Weather Stations






























Interactive Weather Map New forecast layout! Learn more

10-Day Weather Forecast

Advertisements
Track Severe Weather on mobile